createdAt,value
2022-11-09T00:00:17.570Z,76.14
2022-11-09T00:01:16.855Z,76.12
2022-11-09T00:02:17.029Z,75.95
2022-11-09T00:03:16.315Z,75.90
2022-11-09T00:04:16.421Z,75.81
2022-11-09T00:05:16.760Z,75.76
2022-11-09T00:06:16.465Z,75.79
2022-11-09T00:07:16.998Z,75.82
2022-11-09T00:08:15.945Z,75.84
2022-11-09T00:09:17.133Z,75.83
2022-11-09T00:10:16.565Z,75.72
2022-11-09T00:11:16.830Z,75.73
2022-11-09T00:12:17.100Z,75.66
2022-11-09T00:13:16.929Z,75.62
2022-11-09T00:14:16.508Z,75.63
2022-11-09T00:15:17.167Z,75.64
2022-11-09T00:16:16.484Z,75.65
2022-11-09T00:17:17.049Z,75.66
2022-11-09T00:18:35.701Z,75.70
2022-11-09T00:19:17.163Z,75.70
2022-11-09T00:20:16.712Z,75.62
2022-11-09T00:21:17.205Z,75.51
2022-11-09T00:22:16.226Z,75.54
2022-11-09T00:23:17.202Z,75.51
2022-11-09T00:24:16.740Z,75.51
2022-11-09T00:25:17.500Z,75.56
2022-11-09T00:26:16.817Z,75.60
2022-11-09T00:27:23.261Z,75.72
2022-11-09T00:28:16.515Z,75.72
2022-11-09T00:29:16.962Z,75.70
2022-11-09T00:30:17.337Z,75.72
2022-11-09T00:31:16.749Z,75.77
2022-11-09T00:32:17.045Z,75.93
2022-11-09T00:33:17.027Z,76.05
2022-11-09T00:34:16.448Z,75.94
2022-11-09T00:35:17.112Z,75.79
2022-11-09T00:36:16.080Z,75.82
2022-11-09T00:37:16.383Z,75.83
2022-11-09T00:38:16.440Z,75.87
2022-11-09T00:39:16.409Z,75.94
2022-11-09T00:40:16.802Z,75.98
2022-11-09T00:41:16.849Z,75.91
2022-11-09T00:42:17.144Z,75.79
2022-11-09T00:43:16.694Z,75.79
2022-11-09T00:44:17.108Z,75.82
2022-11-09T00:45:16.743Z,75.72
2022-11-09T00:46:16.914Z,75.70
2022-11-09T00:47:16.220Z,75.73
2022-11-09T00:48:16.342Z,75.76
2022-11-09T00:49:16.219Z,75.79
2022-11-09T00:50:16.414Z,75.84
2022-11-09T00:51:16.477Z,75.88
2022-11-09T00:52:16.155Z,75.94
2022-11-09T00:53:16.377Z,75.95
2022-11-09T00:54:16.636Z,75.89
2022-11-09T00:55:16.913Z,75.93
2022-11-09T00:57:16.915Z,75.88
2022-11-09T00:58:17.020Z,75.89
2022-11-09T00:59:16.216Z,75.94
2022-11-09T01:00:17.176Z,75.98
2022-11-09T01:01:18.491Z,76.00
2022-11-09T01:02:16.950Z,76.02
2022-11-09T01:03:17.709Z,75.88
2022-11-09T01:04:16.817Z,75.89
2022-11-09T01:05:17.390Z,75.94
2022-11-09T01:06:17.001Z,76.04
2022-11-09T01:07:16.300Z,76.07
2022-11-09T01:08:16.130Z,76.05
2022-11-09T01:09:16.640Z,76.00
2022-11-09T01:10:16.845Z,75.97
2022-11-09T01:11:17.035Z,75.92
2022-11-09T01:12:16.246Z,75.94
2022-11-09T01:13:16.759Z,75.96
2022-11-09T01:14:16.861Z,75.90
2022-11-09T01:15:18.088Z,75.87
2022-11-09T01:16:15.869Z,75.81
2022-11-09T01:17:17.187Z,75.88
2022-11-09T01:18:16.243Z,75.91
2022-11-09T01:19:16.518Z,75.90
2022-11-09T01:20:16.342Z,75.85
2022-11-09T01:21:16.569Z,75.74
2022-11-09T01:22:16.676Z,75.71
2022-11-09T01:23:17.251Z,75.68
2022-11-09T01:24:16.394Z,75.71
2022-11-09T01:25:16.596Z,75.74
2022-11-09T01:26:16.732Z,75.72
2022-11-09T01:27:17.003Z,75.72
2022-11-09T01:28:16.002Z,75.76
2022-11-09T01:29:16.289Z,75.80
2022-11-09T01:30:16.980Z,75.79
2022-11-09T01:31:17.524Z,75.79
2022-11-09T01:32:16.838Z,75.81
2022-11-09T01:33:17.293Z,75.86
2022-11-09T01:34:16.636Z,75.91
2022-11-09T01:35:17.016Z,75.93
2022-11-09T01:36:16.039Z,76.04
2022-11-09T01:37:16.310Z,76.18
2022-11-09T01:38:16.469Z,76.15
2022-11-09T01:39:16.603Z,76.21
2022-11-09T01:40:16.758Z,76.23
2022-11-09T01:41:17.039Z,76.28
2022-11-09T01:42:16.051Z,76.34
2022-11-09T01:43:16.494Z,76.34
2022-11-09T01:44:16.754Z,76.31
2022-11-09T01:45:17.281Z,76.32
2022-11-09T01:46:16.611Z,76.36
2022-11-09T01:47:16.654Z,76.38
2022-11-09T01:48:16.640Z,76.37
2022-11-09T01:49:16.776Z,76.39
2022-11-09T01:50:16.759Z,76.47
2022-11-09T01:51:17.161Z,76.54
2022-11-09T01:52:16.625Z,76.55
2022-11-09T01:53:17.615Z,76.61
2022-11-09T01:54:17.105Z,76.62
2022-11-09T01:55:15.695Z,76.63
2022-11-09T01:56:16.814Z,76.61
2022-11-09T01:57:17.189Z,76.66
2022-11-09T01:58:16.843Z,76.79
2022-11-09T01:59:17.428Z,76.85
2022-11-09T02:00:17.340Z,76.90
2022-11-09T02:01:17.087Z,76.96
2022-11-09T02:02:16.099Z,76.98
2022-11-09T02:03:17.462Z,77
2022-11-09T02:04:16.975Z,77.00
2022-11-09T02:05:16.171Z,77.03
2022-11-09T02:06:16.214Z,77.02
2022-11-09T02:07:16.640Z,77.00
2022-11-09T02:08:16.744Z,77.05
2022-11-09T02:09:17.273Z,77.03
2022-11-09T02:10:16.586Z,77.04
2022-11-09T02:11:16.930Z,77.14
2022-11-09T02:12:17.083Z,77.14
2022-11-09T02:13:16.829Z,77.14
2022-11-09T02:14:16.001Z,77.19
2022-11-09T02:15:16.953Z,77.20
2022-11-09T02:16:16.992Z,77.28
2022-11-09T02:17:16.094Z,77.35
2022-11-09T02:18:16.312Z,77.34
2022-11-09T02:19:16.684Z,77.41
2022-11-09T02:20:16.665Z,77.51
2022-11-09T02:21:16.765Z,77.66
2022-11-09T02:22:17.221Z,77.80
2022-11-09T02:23:16.869Z,77.79
2022-11-09T02:24:16.780Z,77.94
2022-11-09T02:25:17.218Z,78.02
2022-11-09T02:26:16.335Z,78.12
2022-11-09T02:27:16.661Z,78.24
2022-11-09T02:28:16.662Z,78.24
2022-11-09T02:29:16.970Z,78.31
2022-11-09T02:30:17.620Z,78.48
2022-11-09T02:31:17.006Z,78.55
2022-11-09T02:32:16.397Z,78.56
2022-11-09T02:33:17.012Z,78.55
2022-11-09T02:34:16.021Z,78.52
2022-11-09T02:35:16.450Z,78.53
2022-11-09T02:36:16.888Z,78.58
2022-11-09T02:37:17.159Z,78.72
2022-11-09T02:38:16.756Z,78.81
2022-11-09T02:39:17.352Z,78.87
2022-11-09T02:40:16.450Z,78.86
2022-11-09T02:41:17.264Z,78.87
2022-11-09T02:42:21.440Z,78.90
2022-11-09T02:43:17.467Z,78.94
2022-11-09T02:44:17.067Z,78.91
2022-11-09T02:45:16.740Z,78.95
2022-11-09T02:46:16.891Z,79.03
2022-11-09T02:47:17.436Z,78.98
2022-11-09T02:48:16.955Z,79.02
2022-11-09T02:49:17.211Z,79.13
2022-11-09T02:50:16.619Z,79.13
2022-11-09T02:51:16.930Z,79.12
2022-11-09T02:52:16.821Z,79.17
2022-11-09T02:53:17.641Z,79.12
2022-11-09T02:54:16.713Z,78.95
2022-11-09T02:55:17.217Z,78.83
2022-11-09T02:56:16.118Z,78.83
2022-11-09T02:57:16.527Z,79.01
2022-11-09T02:58:16.588Z,79.15
2022-11-09T02:59:16.692Z,79.09
2022-11-09T03:00:17.824Z,79.06
2022-11-09T03:01:16.901Z,79.24
2022-11-09T03:02:16.823Z,79.39
2022-11-09T03:03:17.377Z,79.42
2022-11-09T03:04:16.687Z,79.51
2022-11-09T03:05:16.993Z,79.43
2022-11-09T03:06:16.105Z,79.41
2022-11-09T03:07:16.516Z,79.35
2022-11-09T03:08:16.253Z,79.42
2022-11-09T03:09:16.489Z,79.43
2022-11-09T03:10:16.850Z,79.56
2022-11-09T03:11:17.411Z,79.44
2022-11-09T03:12:16.884Z,79.44
2022-11-09T03:13:17.210Z,79.28
2022-11-09T03:14:16.377Z,79.09
2022-11-09T03:15:16.939Z,79.03
2022-11-09T03:16:17.029Z,79.08
2022-11-09T03:17:16.299Z,79.10
2022-11-09T03:18:16.416Z,79.19
2022-11-09T03:19:17.007Z,79.18
2022-11-09T03:20:16.435Z,79.05
2022-11-09T03:21:16.808Z,78.91
2022-11-09T03:22:16.969Z,78.80
2022-11-09T03:23:17.595Z,78.73
2022-11-09T03:24:16.719Z,78.67
2022-11-09T03:25:17.172Z,78.48
2022-11-09T03:26:16.376Z,78.41
2022-11-09T03:27:16.765Z,78.52
2022-11-09T03:28:16.435Z,78.56
2022-11-09T03:29:16.876Z,78.67
2022-11-09T03:30:17.067Z,78.71
2022-11-09T03:31:16.290Z,78.66
2022-11-09T03:32:16.282Z,78.35
2022-11-09T03:33:16.828Z,78.29
2022-11-09T03:34:16.128Z,78.46
2022-11-09T03:35:16.561Z,78.50
2022-11-09T03:36:17.039Z,78.49
2022-11-09T03:37:16.415Z,78.54
2022-11-09T03:38:16.558Z,78.68
2022-11-09T03:39:16.265Z,78.78
2022-11-09T03:40:15.210Z,78.90
2022-11-09T03:41:16.471Z,78.98
2022-11-09T03:42:16.452Z,79.01
2022-11-09T03:43:17.403Z,79.03
2022-11-09T03:44:17.248Z,78.98
2022-11-09T03:45:16.945Z,78.98
2022-11-09T03:46:17.084Z,78.81
2022-11-09T03:47:16.145Z,78.74
2022-11-09T03:48:15.982Z,78.82
2022-11-09T03:49:17.858Z,78.87
2022-11-09T03:50:17.430Z,78.97
2022-11-09T03:51:16.574Z,79.12
2022-11-09T03:52:16.968Z,79.24
2022-11-09T03:53:17.566Z,79.33
2022-11-09T03:54:16.920Z,79.21
2022-11-09T03:55:17.543Z,79.22
2022-11-09T03:56:16.560Z,79.29
2022-11-09T03:57:16.876Z,79.38
2022-11-09T03:58:17.013Z,79.38
2022-11-09T03:59:16.261Z,79.29
2022-11-09T04:00:17.331Z,79.22
2022-11-09T04:01:16.894Z,79.14
2022-11-09T04:02:17.507Z,79.16
2022-11-09T04:03:17.043Z,79.31
2022-11-09T04:04:16.515Z,79.51
2022-11-09T04:05:17.101Z,79.50
2022-11-09T04:06:16.409Z,79.60
2022-11-09T04:07:16.969Z,79.51
2022-11-09T04:08:16.075Z,79.44
2022-11-09T04:09:16.286Z,79.49
2022-11-09T04:10:16.293Z,79.42
2022-11-09T04:11:16.548Z,79.45
2022-11-09T04:12:16.235Z,79.43
2022-11-09T04:13:16.415Z,79.53
2022-11-09T04:14:16.565Z,79.50
2022-11-09T04:15:17.383Z,79.42
2022-11-09T04:16:16.337Z,79.40
2022-11-09T04:17:16.743Z,79.43
2022-11-09T04:18:17.095Z,79.38
2022-11-09T04:19:16.381Z,79.20
2022-11-09T04:20:16.721Z,79.13
2022-11-09T04:21:21.464Z,79.11
2022-11-09T04:22:16.749Z,79.10
2022-11-09T04:23:17.339Z,79.20
2022-11-09T04:24:16.259Z,79.22
2022-11-09T04:25:16.852Z,79.23
2022-11-09T04:26:17.146Z,79.29
2022-11-09T04:27:16.399Z,79.42
2022-11-09T04:28:16.472Z,79.50
2022-11-09T04:29:16.794Z,79.64
2022-11-09T04:30:16.779Z,79.73
2022-11-09T04:31:16.915Z,79.80
2022-11-09T04:32:17.000Z,79.87
2022-11-09T04:33:16.334Z,80.02
2022-11-09T04:34:16.565Z,79.97
2022-11-09T04:35:17.130Z,80.02
2022-11-09T04:36:16.269Z,79.88
2022-11-09T04:37:16.677Z,79.76
2022-11-09T04:38:16.691Z,79.73
2022-11-09T04:39:16.872Z,79.69
2022-11-09T04:40:16.958Z,79.80
2022-11-09T04:41:17.335Z,79.75
2022-11-09T04:42:16.202Z,79.77
2022-11-09T04:43:16.408Z,79.80
2022-11-09T04:44:16.481Z,79.87
2022-11-09T04:45:16.818Z,79.82
2022-11-09T04:46:16.767Z,79.74
2022-11-09T04:47:17.092Z,79.76
2022-11-09T04:48:16.375Z,79.82
2022-11-09T04:49:16.911Z,79.88
2022-11-09T04:50:17.232Z,79.79
2022-11-09T04:51:16.577Z,79.86
2022-11-09T04:52:16.332Z,80.03
2022-11-09T04:53:16.692Z,80.08
2022-11-09T04:54:24.792Z,80.01
2022-11-09T04:55:17.115Z,80.05
2022-11-09T04:56:16.319Z,80.08
2022-11-09T04:57:16.690Z,80.19
2022-11-09T04:58:19.894Z,80.12
2022-11-09T04:59:17.248Z,80.10
2022-11-09T05:00:17.436Z,80.07
2022-11-09T05:01:16.305Z,80.06
2022-11-09T05:02:16.533Z,80.15
2022-11-09T05:03:17.390Z,80.27
2022-11-09T05:04:16.896Z,80.15
2022-11-09T05:05:17.480Z,79.95
2022-11-09T05:06:16.263Z,79.96
2022-11-09T05:07:17.012Z,80.06
2022-11-09T05:08:16.634Z,80.24
2022-11-09T05:09:17.333Z,80.31
2022-11-09T05:10:38.502Z,80.31
2022-11-09T05:11:17.029Z,80.31
2022-11-09T05:12:16.375Z,80.34
2022-11-09T05:13:16.895Z,80.31
2022-11-09T05:14:16.271Z,80.22
2022-11-09T05:15:17.145Z,80.12
2022-11-09T05:16:15.920Z,80.04
2022-11-09T05:17:17.418Z,79.96
2022-11-09T05:18:16.970Z,79.84
2022-11-09T05:19:17.754Z,79.85
2022-11-09T05:20:17.228Z,79.88
2022-11-09T05:21:16.354Z,79.85
2022-11-09T05:22:16.822Z,79.87
2022-11-09T05:23:17.539Z,80.00
2022-11-09T05:24:16.909Z,80.04
2022-11-09T05:25:17.890Z,80.05
2022-11-09T05:26:17.226Z,80.14
2022-11-09T05:27:16.616Z,80.39
2022-11-09T05:28:16.945Z,80.57
2022-11-09T05:29:17.434Z,80.73
2022-11-09T05:30:17.040Z,81.12
2022-11-09T05:31:16.593Z,81.37
2022-11-09T05:32:17.062Z,81.70
2022-11-09T05:33:16.847Z,81.51
2022-11-09T05:34:16.504Z,81.72
2022-11-09T05:35:16.898Z,81.69
2022-11-09T05:36:17.214Z,81.76
2022-11-09T05:37:16.698Z,81.81
2022-11-09T05:38:16.754Z,81.84
2022-11-09T05:39:17.774Z,81.80
2022-11-09T05:40:17.343Z,81.81
2022-11-09T05:41:16.825Z,81.74
2022-11-09T05:42:17.069Z,81.76
2022-11-09T05:43:16.609Z,81.62
2022-11-09T05:44:16.806Z,81.79
2022-11-09T05:45:47.092Z,81.80
2022-11-09T05:46:16.303Z,81.80
2022-11-09T05:47:16.574Z,81.70
2022-11-09T05:48:17.146Z,81.64
2022-11-09T05:49:16.906Z,81.49
2022-11-09T05:50:17.446Z,81.32
2022-11-09T05:51:16.963Z,81.35
2022-11-09T05:52:17.274Z,81.33
2022-11-09T05:53:16.353Z,81.23
2022-11-09T05:54:16.814Z,81.31
2022-11-09T05:55:17.411Z,81.32
2022-11-09T05:56:16.772Z,81.41
2022-11-09T05:57:17.057Z,81.26
2022-11-09T05:58:16.602Z,81.05
2022-11-09T05:59:16.866Z,80.89
2022-11-09T06:00:18.010Z,80.81
2022-11-09T06:01:16.513Z,80.84
2022-11-09T06:02:16.945Z,80.67
2022-11-09T06:03:16.339Z,80.58
2022-11-09T06:04:16.450Z,80.62
2022-11-09T06:05:16.840Z,80.62
2022-11-09T06:06:17.836Z,80.58
2022-11-09T06:07:18.092Z,80.63
2022-11-09T06:08:16.173Z,80.65
2022-11-09T06:09:16.654Z,80.72
2022-11-09T06:10:16.725Z,80.84
2022-11-09T06:11:23.615Z,80.98
2022-11-09T06:12:16.870Z,81.04
2022-11-09T06:13:17.651Z,81.12
2022-11-09T06:14:16.711Z,81.12
2022-11-09T06:15:17.427Z,81.03
2022-11-09T06:16:16.589Z,81.08
2022-11-09T06:17:16.891Z,81.14
2022-11-09T06:18:16.617Z,81.12
2022-11-09T06:19:17.213Z,81.14
2022-11-09T06:20:16.479Z,81.11
2022-11-09T06:21:17.011Z,81.06
2022-11-09T06:22:16.148Z,81.13
2022-11-09T06:23:16.343Z,81.28
2022-11-09T06:24:16.911Z,81.42
2022-11-09T06:25:17.412Z,81.46
2022-11-09T06:26:17.332Z,81.47
2022-11-09T06:27:17.328Z,81.54
2022-11-09T06:28:16.926Z,81.48
2022-11-09T06:29:17.276Z,81.47
2022-11-09T06:30:16.980Z,81.63
2022-11-09T06:31:16.388Z,81.76
2022-11-09T06:32:16.951Z,81.81
2022-11-09T06:33:16.837Z,81.78
2022-11-09T06:34:17.040Z,81.83
2022-11-09T06:35:16.287Z,81.85
2022-11-09T06:36:16.778Z,81.93
2022-11-09T06:37:17.336Z,81.91
2022-11-09T06:38:16.055Z,82.01
2022-11-09T06:39:16.328Z,82.10
2022-11-09T06:40:16.545Z,82.07
2022-11-09T06:41:17.059Z,82.09
2022-11-09T06:42:16.638Z,82.13
2022-11-09T06:43:17.550Z,82.12
2022-11-09T06:44:16.757Z,82.00
2022-11-09T06:45:17.403Z,81.95
2022-11-09T06:46:16.883Z,81.91
2022-11-09T06:47:17.567Z,82.02
2022-11-09T06:48:16.947Z,82.02
2022-11-09T06:49:17.507Z,82.09
2022-11-09T06:50:17.268Z,82.09
2022-11-09T06:51:16.984Z,82.09
2022-11-09T06:52:16.327Z,82.05
2022-11-09T06:53:17.280Z,82.03
2022-11-09T06:54:16.773Z,81.99
2022-11-09T06:55:17.294Z,81.94
2022-11-09T06:56:16.842Z,81.95
2022-11-09T06:57:17.273Z,81.96
2022-11-09T06:58:16.698Z,81.90
2022-11-09T06:59:17.063Z,81.85
2022-11-09T07:00:17.365Z,81.91
2022-11-09T07:01:16.880Z,81.86
2022-11-09T07:02:17.427Z,81.77
2022-11-09T07:03:17.241Z,81.83
2022-11-09T07:04:17.137Z,81.85
2022-11-09T07:05:24.374Z,81.79
2022-11-09T07:06:17.095Z,81.79
2022-11-09T07:07:34.140Z,81.75
2022-11-09T07:08:16.215Z,81.75
2022-11-09T07:09:16.523Z,81.76
2022-11-09T07:10:16.881Z,81.73
2022-11-09T07:11:17.461Z,81.81
2022-11-09T07:12:16.338Z,81.89
2022-11-09T07:13:16.873Z,81.89
2022-11-09T07:14:16.680Z,81.85
2022-11-09T07:15:17.200Z,81.84
2022-11-09T07:16:16.594Z,81.83
2022-11-09T07:17:16.995Z,81.81
2022-11-09T07:18:16.679Z,81.79
2022-11-09T07:19:17.129Z,81.80
2022-11-09T07:20:16.957Z,81.87
2022-11-09T07:21:20.409Z,81.87
2022-11-09T07:22:16.965Z,81.96
2022-11-09T07:23:17.413Z,81.98
2022-11-09T07:24:17.220Z,81.96
2022-11-09T07:25:16.899Z,82.00
2022-11-09T07:26:17.247Z,82.04
2022-11-09T07:27:16.703Z,81.98
2022-11-09T07:28:16.877Z,81.96
2022-11-09T07:29:17.438Z,81.98
2022-11-09T07:30:17.145Z,82.01
2022-11-09T07:31:16.755Z,82.04
2022-11-09T07:32:16.751Z,82.04
2022-11-09T07:33:17.292Z,82.00
2022-11-09T07:34:16.567Z,81.90
2022-11-09T07:35:17.205Z,81.72
2022-11-09T07:36:20.830Z,81.70
2022-11-09T07:37:16.729Z,81.77
2022-11-09T07:38:16.904Z,81.82
2022-11-09T07:39:17.655Z,81.85
2022-11-09T07:40:16.713Z,81.88
2022-11-09T07:41:17.305Z,81.89
2022-11-09T07:42:16.527Z,81.96
2022-11-09T07:43:17.154Z,81.84
2022-11-09T07:44:16.458Z,81.66
2022-11-09T07:45:17.235Z,81.54
2022-11-09T07:46:16.553Z,81.53
2022-11-09T07:47:23.968Z,81.22
2022-11-09T07:48:17.030Z,81.22
2022-11-09T07:49:16.584Z,81.16
2022-11-09T07:50:16.888Z,81.16
2022-11-09T07:51:17.345Z,81.12
2022-11-09T07:52:16.710Z,81.12
2022-11-09T07:53:16.935Z,81.23
2022-11-09T07:54:16.991Z,81.16
2022-11-09T07:55:44.200Z,80.96
2022-11-09T07:56:16.907Z,80.96
2022-11-09T07:57:17.231Z,80.76
2022-11-09T07:58:16.902Z,80.62
2022-11-09T07:59:17.148Z,80.64
2022-11-09T08:00:22.444Z,80.81
2022-11-09T08:01:17.076Z,80.66
2022-11-09T08:02:17.139Z,80.61
2022-11-09T08:03:16.770Z,80.58
2022-11-09T08:04:17.017Z,80.54
2022-11-09T08:05:16.250Z,80.59
2022-11-09T08:07:16.865Z,80.41
2022-11-09T08:08:16.763Z,80.44
2022-11-09T08:09:17.398Z,80.40
2022-11-09T08:10:16.658Z,80.05
2022-11-09T08:11:16.948Z,79.72
2022-11-09T08:12:17.427Z,79.75
2022-11-09T08:13:16.577Z,79.67
2022-11-09T08:14:17.194Z,79.48
2022-11-09T08:15:16.878Z,79.48
2022-11-09T08:16:16.683Z,79.38
2022-11-09T08:17:17.299Z,79.08
2022-11-09T08:18:16.694Z,78.77
2022-11-09T08:19:16.888Z,78.76
2022-11-09T08:20:17.077Z,78.81
2022-11-09T08:21:16.555Z,78.67
2022-11-09T08:22:16.785Z,78.76
2022-11-09T08:23:17.190Z,78.59
2022-11-09T08:24:16.770Z,78.37
2022-11-09T08:25:17.313Z,78.31
2022-11-09T08:26:18.343Z,78.27
2022-11-09T08:27:16.858Z,78.16
2022-11-09T08:28:21.589Z,78.20
2022-11-09T08:29:16.598Z,78.30
2022-11-09T08:30:17.571Z,78.06
2022-11-09T08:31:17.103Z,78.18
2022-11-09T08:32:16.486Z,78.30
2022-11-09T08:33:16.899Z,78.26
2022-11-09T08:34:17.013Z,78.30
2022-11-09T08:35:16.622Z,78.40
2022-11-09T08:36:16.618Z,78.34
2022-11-09T08:37:16.892Z,77.96
2022-11-09T08:38:16.644Z,77.88
2022-11-09T08:39:16.995Z,77.88
2022-11-09T08:40:16.637Z,77.70
2022-11-09T08:41:20.109Z,77.37
2022-11-09T08:42:16.549Z,77.25
2022-11-09T08:43:16.911Z,77
2022-11-09T08:44:16.939Z,76.43
2022-11-09T08:45:17.561Z,76.01
2022-11-09T08:46:16.594Z,76.13
2022-11-09T08:47:17.005Z,76.09
2022-11-09T08:48:16.561Z,76.14
2022-11-09T08:49:16.790Z,76.16
2022-11-09T08:50:16.563Z,76.13
2022-11-09T08:51:16.791Z,76.06
2022-11-09T08:52:16.820Z,76.06
2022-11-09T08:53:17.222Z,76.05
2022-11-09T08:54:16.578Z,75.97
2022-11-09T08:55:16.827Z,76.04
2022-11-09T08:56:16.792Z,76.18
2022-11-09T08:57:17.124Z,76.11
2022-11-09T08:58:16.982Z,76.01
2022-11-09T09:00:06.552Z,76.05
2022-11-09T09:00:17.311Z,76.05
2022-11-09T09:01:23.142Z,75.70
2022-11-09T09:02:16.613Z,75.70
2022-11-09T09:03:17.113Z,75.62
2022-11-09T09:04:16.020Z,75.68
2022-11-09T09:05:16.475Z,75.60
2022-11-09T09:06:16.977Z,75.37
2022-11-09T09:07:17.579Z,74.98
2022-11-09T09:08:16.545Z,74.73
2022-11-09T09:09:17.150Z,74.75
2022-11-09T09:10:15.905Z,74.67
2022-11-09T09:11:17.058Z,74.63
2022-11-09T09:12:16.346Z,74.52
2022-11-09T09:13:16.762Z,74.58
2022-11-09T09:14:16.895Z,74.83
2022-11-09T09:15:17.505Z,74.71
2022-11-09T09:16:16.893Z,74.78
2022-11-09T09:17:16.771Z,74.55
2022-11-09T09:18:16.498Z,74.49
2022-11-09T09:19:16.653Z,74.40
2022-11-09T09:20:17.069Z,74.16
2022-11-09T09:21:16.501Z,73.98
2022-11-09T09:22:16.815Z,73.79
2022-11-09T09:23:17.002Z,73.56
2022-11-09T09:24:16.787Z,73.28
2022-11-09T09:25:17.002Z,73.27
2022-11-09T09:26:15.728Z,73.08
2022-11-09T09:27:16.981Z,72.93
2022-11-09T09:28:21.584Z,73.17
2022-11-09T09:29:17.525Z,73.09
2022-11-09T09:30:16.680Z,72.81
2022-11-09T09:31:22.971Z,72.62
2022-11-09T09:32:17.276Z,72.62
2022-11-09T09:33:16.856Z,72.65
2022-11-09T09:34:17.370Z,72.44
2022-11-09T09:35:16.834Z,72.08
2022-11-09T09:36:16.980Z,71.79
2022-11-09T09:37:17.703Z,71.48
2022-11-09T09:38:17.196Z,71.66
2022-11-09T09:39:16.934Z,71.56
2022-11-09T09:40:17.159Z,71.43
2022-11-09T09:41:16.424Z,71.21
2022-11-09T09:42:16.916Z,70.88
2022-11-09T09:43:17.628Z,70.80
2022-11-09T09:44:16.599Z,70.62
2022-11-09T09:45:17.543Z,70.66
2022-11-09T09:46:16.445Z,70.65
2022-11-09T09:47:17.042Z,70.60
2022-11-09T09:48:16.395Z,70.83
2022-11-09T09:49:16.560Z,70.48
2022-11-09T09:50:16.963Z,70.13
2022-11-09T09:51:16.220Z,70.25
2022-11-09T09:52:16.136Z,70.22
2022-11-09T09:53:30.188Z,70.13
2022-11-09T09:54:16.782Z,70.13
2022-11-09T09:55:17.211Z,69.92
2022-11-09T09:56:16.669Z,69.94
2022-11-09T09:57:16.693Z,69.95
2022-11-09T09:58:16.540Z,70.06
2022-11-09T09:59:16.949Z,70.19
2022-11-09T10:00:18.212Z,70.43
2022-11-09T10:01:16.557Z,70.34
2022-11-09T10:02:16.345Z,70.33
2022-11-09T10:03:17.076Z,70.36
2022-11-09T10:04:16.402Z,70.37
2022-11-09T10:05:16.802Z,70.12
2022-11-09T10:06:17.377Z,69.75
2022-11-09T10:07:17.562Z,69.87
2022-11-09T10:08:16.487Z,69.79
2022-11-09T10:09:16.805Z,69.83
2022-11-09T10:10:17.290Z,69.85
2022-11-09T10:11:16.457Z,70.01
2022-11-09T10:12:16.493Z,69.96
2022-11-09T10:13:17.129Z,69.82
2022-11-09T10:14:16.250Z,69.45
2022-11-09T10:15:17.008Z,69.49
2022-11-09T10:16:16.295Z,69.62
2022-11-09T10:17:16.767Z,69.64
2022-11-09T10:18:16.937Z,69.67
2022-11-09T10:19:17.162Z,69.55
2022-11-09T10:20:16.471Z,69.42
2022-11-09T10:21:16.607Z,69.59
2022-11-09T10:22:16.737Z,69.22
2022-11-09T10:23:16.892Z,69.13
2022-11-09T10:24:17.478Z,69.18
2022-11-09T10:26:15.740Z,69.25
2022-11-09T10:26:22.169Z,69.25
2022-11-09T10:27:16.976Z,69.09
2022-11-09T10:29:23.211Z,68.97
2022-11-09T10:30:16.579Z,68.97
2022-11-09T10:31:16.808Z,68.81
2022-11-09T10:32:17.286Z,68.93
2022-11-09T10:33:16.568Z,68.87
2022-11-09T10:34:16.861Z,68.52
2022-11-09T10:35:17.318Z,68.43
2022-11-09T10:36:16.762Z,68.51
2022-11-09T10:37:16.931Z,68.49
2022-11-09T10:38:17.478Z,68.67
2022-11-09T10:39:17.219Z,68.65
2022-11-09T10:40:16.674Z,68.65
2022-11-09T10:41:17.218Z,68.81
2022-11-09T10:42:16.828Z,68.50
2022-11-09T10:43:16.842Z,68.46
2022-11-09T10:45:17.070Z,68.58
2022-11-09T10:46:16.896Z,68.59
2022-11-09T10:47:17.117Z,68.46
2022-11-09T10:48:16.383Z,68.46
2022-11-09T10:49:16.806Z,68.43
2022-11-09T10:50:17.440Z,68.37
2022-11-09T10:51:17.134Z,68.21
2022-11-09T10:52:16.805Z,67.89
2022-11-09T10:53:17.302Z,67.89
2022-11-09T10:54:16.960Z,67.63
2022-11-09T10:55:17.853Z,67.48
2022-11-09T10:56:21.236Z,67.24
2022-11-09T10:57:17.384Z,67.08
2022-11-09T10:58:17.325Z,66.94
2022-11-09T10:59:17.257Z,67.05
2022-11-09T11:00:17.558Z,67.04
2022-11-09T11:01:17.398Z,67.08
2022-11-09T11:02:17.188Z,67.30
2022-11-09T11:03:17.329Z,67.08
2022-11-09T11:04:16.750Z,67.45
2022-11-09T11:05:17.683Z,67.26
2022-11-09T11:06:17.020Z,67.33
2022-11-09T11:07:20.721Z,67.33
2022-11-09T11:08:16.840Z,67.23
2022-11-09T11:09:17.669Z,67.38
2022-11-09T11:10:18.251Z,67.24
2022-11-09T11:11:39.177Z,66.90
2022-11-09T11:12:17.100Z,66.90
2022-11-09T11:13:16.978Z,66.97
2022-11-09T11:14:22.516Z,67.08
2022-11-09T11:15:17.748Z,67.08
2022-11-09T11:16:17.738Z,67.30
2022-11-09T11:17:17.667Z,67.51
2022-11-09T11:18:17.717Z,67.61
2022-11-09T11:19:17.270Z,67.93
2022-11-09T11:20:17.055Z,68.01
2022-11-09T11:21:23.557Z,68.29
2022-11-09T11:22:16.850Z,68.29
2022-11-09T11:23:17.979Z,68.11
2022-11-09T11:24:16.642Z,67.97
2022-11-09T11:25:17.325Z,67.76
2022-11-09T11:26:16.925Z,67.80
2022-11-09T11:27:17.516Z,67.83
2022-11-09T11:28:16.898Z,67.75
2022-11-09T11:29:17.458Z,67.77
2022-11-09T11:30:17.365Z,67.98
2022-11-09T11:31:17.151Z,68.12
2022-11-09T11:32:16.689Z,68.08
2022-11-09T11:33:17.577Z,68.04
2022-11-09T11:34:38.383Z,68.00
2022-11-09T11:35:17.738Z,67.82
2022-11-09T11:36:16.804Z,67.64
2022-11-09T11:37:17.156Z,67.73
2022-11-09T11:38:16.657Z,67.83
2022-11-09T11:39:17.471Z,67.98
2022-11-09T11:40:16.697Z,68.01
2022-11-09T11:41:17.127Z,68.14
2022-11-09T11:42:16.561Z,68.31
2022-11-09T11:43:17.621Z,68.48
2022-11-09T11:44:17.162Z,68.80
2022-11-09T11:45:46.500Z,69.23
2022-11-09T11:46:17.154Z,69.23
2022-11-09T11:47:16.781Z,69.02
2022-11-09T11:48:16.723Z,68.94
2022-11-09T11:49:17.367Z,68.94
2022-11-09T11:50:17.204Z,69.16
2022-11-09T11:51:21.567Z,69.16
2022-11-09T11:52:16.695Z,68.71
2022-11-09T11:53:17.999Z,68.63
2022-11-09T11:54:17.986Z,68.57
2022-11-09T11:55:24.442Z,68.62
2022-11-09T11:56:16.970Z,68.62
2022-11-09T11:57:17.454Z,68.67
2022-11-09T11:58:16.848Z,68.64
2022-11-09T11:59:17.178Z,68.43
2022-11-09T12:00:17.682Z,68.21
2022-11-09T12:01:17.180Z,68.01
2022-11-09T12:02:16.902Z,67.48
2022-11-09T12:03:17.985Z,67.36
2022-11-09T12:04:16.712Z,67.07
2022-11-09T12:05:17.698Z,67.18
2022-11-09T12:06:17.280Z,67.41
2022-11-09T12:07:17.367Z,67.48
2022-11-09T12:08:16.901Z,67.61
2022-11-09T12:09:17.568Z,67.78
2022-11-09T12:10:17.242Z,67.85
2022-11-09T12:11:16.942Z,68.22
2022-11-09T12:12:16.734Z,68.19
2022-11-09T12:13:17.407Z,68.23
2022-11-09T12:14:16.706Z,68.30
2022-11-09T12:15:17.305Z,68.36
2022-11-09T12:16:16.901Z,68.33
2022-11-09T12:17:17.269Z,68.30
2022-11-09T12:18:16.976Z,68.43
2022-11-09T12:19:17.477Z,68.32
2022-11-09T12:20:17.184Z,68.26
2022-11-09T12:21:16.603Z,68.18
2022-11-09T12:22:16.622Z,68.05
2022-11-09T12:23:17.427Z,67.99
2022-11-09T12:24:16.976Z,68.05
2022-11-09T12:25:18.025Z,68.12
2022-11-09T12:27:37.805Z,68.04
2022-11-09T12:28:17.343Z,68.04
2022-11-09T12:29:17.035Z,68.13
2022-11-09T12:30:16.896Z,67.88
2022-11-09T12:31:39.098Z,67.61
2022-11-09T12:32:16.244Z,67.61
2022-11-09T12:33:16.800Z,67.65
2022-11-09T12:34:16.894Z,67.86
2022-11-09T12:35:17.738Z,67.70
2022-11-09T12:36:17.161Z,67.60
2022-11-09T12:37:16.755Z,67.67
2022-11-09T12:38:17.198Z,67.74
2022-11-09T12:39:17.150Z,67.79
2022-11-09T12:40:16.810Z,67.66
2022-11-09T12:41:17.366Z,67.68
2022-11-09T12:42:16.365Z,67.76
2022-11-09T12:43:17.084Z,67.75
2022-11-09T12:45:16.887Z,67.73
2022-11-09T12:46:17.245Z,67.72
2022-11-09T12:47:17.764Z,67.74
2022-11-09T12:48:17.146Z,67.81
2022-11-09T12:49:16.796Z,67.95
2022-11-09T12:50:17.383Z,67.85
2022-11-09T12:51:16.916Z,67.72
2022-11-09T12:52:17.647Z,67.73
2022-11-09T12:53:17.310Z,67.59
2022-11-09T12:54:16.969Z,67.54
2022-11-09T12:55:17.743Z,67.56
2022-11-09T12:56:17.123Z,67.51
2022-11-09T12:57:16.938Z,67.57
2022-11-09T12:58:17.101Z,67.44